Allenwood, Pennsylvania
Current Conditions -  °F | °C
As of 3:54 AM on Friday 24 Oct 2014 (Local Time) from KIPT Reporting Station
Overcast Overcast  
Wind Chill: 55°   Ceiling: 3300
Heat Index: 55°   Visibility: 10mi
Dew Point: 43°   Wind: 10mph
Humidity: 64%   Direction: 300°WNW
Pressure: 29.91"   Gusts: NA
Location:  41.11°N, 76.9°W
Report Text: KIPT 240754Z AUTO 30009KT 10SM BKN033 OVC040 13/06 A2991 RMK AO2 SLP129 T01280061
Loading
Personal Weather Stations






























Interactive Weather Map
Tropical Storm Tracking
New forecast layout! Learn more

10-Day Weather Forecast

Advertisements
Track Severe Weather on mobile